sensor_id;sensor_type;location;lat;lon;timestamp;temperature;humidity
3713;DHT22;1872;51.406;6.856;2023-11-22T00:01:03;6.80;99.90
3713;DHT22;1872;51.406;6.856;2023-11-22T00:03:29;6.80;99.90
3713;DHT22;1872;51.406;6.856;2023-11-22T00:05:54;6.70;99.90
3713;DHT22;1872;51.406;6.856;2023-11-22T00:08:20;6.70;99.90
3713;DHT22;1872;51.406;6.856;2023-11-22T00:10:46;6.60;99.90
3713;DHT22;1872;51.406;6.856;2023-11-22T00:13:11;6.50;99.90
3713;DHT22;1872;51.406;6.856;2023-11-22T00:15:37;6.50;99.90
3713;DHT22;1872;51.406;6.856;2023-11-22T00:18:03;6.50;99.90
3713;DHT22;1872;51.406;6.856;2023-11-22T00:20:30;6.40;99.90
3713;DHT22;1872;51.406;6.856;2023-11-22T00:22:57;6.40;99.90
3713;DHT22;1872;51.406;6.856;2023-11-22T00:25:25;6.30;99.90
3713;DHT22;1872;51.406;6.856;2023-11-22T00:27:50;6.30;99.90
3713;DHT22;1872;51.406;6.856;2023-11-22T00:30:18;6.30;99.90
3713;DHT22;1872;51.406;6.856;2023-11-22T00:32:44;6.20;99.90
3713;DHT22;1872;51.406;6.856;2023-11-22T00:35:10;6.20;99.90
3713;DHT22;1872;51.406;6.856;2023-11-22T00:37:35;6.20;99.90
3713;DHT22;1872;51.406;6.856;2023-11-22T00:40:02;6.20;99.90
3713;DHT22;1872;51.406;6.856;2023-11-22T00:42:38;6.20;99.90
3713;DHT22;1872;51.406;6.856;2023-11-22T00:45:06;6.20;99.90
3713;DHT22;1872;51.406;6.856;2023-11-22T00:47:35;6.20;99.90
3713;DHT22;1872;51.406;6.856;2023-11-22T00:50:01;6.10;99.90
3713;DHT22;1872;51.406;6.856;2023-11-22T00:52:27;6.10;99.90
3713;DHT22;1872;51.406;6.856;2023-11-22T00:54:55;6.00;99.90
3713;DHT22;1872;51.406;6.856;2023-11-22T00:57:21;6.00;99.90
3713;DHT22;1872;51.406;6.856;2023-11-22T00:59:46;6.00;99.90
3713;DHT22;1872;51.406;6.856;2023-11-22T01:02:15;5.90;99.90
3713;DHT22;1872;51.406;6.856;2023-11-22T01:04:41;5.90;99.90
3713;DHT22;1872;51.406;6.856;2023-11-22T01:07:06;5.90;99.90
3713;DHT22;1872;51.406;6.856;2023-11-22T01:09:34;5.90;99.90
3713;DHT22;1872;51.406;6.856;2023-11-22T01:12:01;5.80;99.90
3713;DHT22;1872;51.406;6.856;2023-11-22T01:14:27;5.90;99.90
3713;DHT22;1872;51.406;6.856;2023-11-22T01:16:53;5.80;99.90
3713;DHT22;1872;51.406;6.856;2023-11-22T01:19:20;5.80;99.90
3713;DHT22;1872;51.406;6.856;2023-11-22T01:21:46;5.80;99.90
3713;DHT22;1872;51.406;6.856;2023-11-22T01:24:12;5.80;99.90
3713;DHT22;1872;51.406;6.856;2023-11-22T01:26:37;5.80;99.90
3713;DHT22;1872;51.406;6.856;2023-11-22T01:29:06;5.70;99.90
3713;DHT22;1872;51.406;6.856;2023-11-22T01:31:32;5.70;99.90
3713;DHT22;1872;51.406;6.856;2023-11-22T01:33:58;5.60;99.90
3713;DHT22;1872;51.406;6.856;2023-11-22T01:36:24;5.60;99.90
3713;DHT22;1872;51.406;6.856;2023-11-22T01:38:52;5.60;99.90
3713;DHT22;1872;51.406;6.856;2023-11-22T01:41:18;5.60;99.90
3713;DHT22;1872;51.406;6.856;2023-11-22T01:43:43;5.60;99.90
3713;DHT22;1872;51.406;6.856;2023-11-22T01:46:10;5.60;99.90
3713;DHT22;1872;51.406;6.856;2023-11-22T01:48:39;5.50;99.90
3713;DHT22;1872;51.406;6.856;2023-11-22T01:51:05;5.50;99.90
3713;DHT22;1872;51.406;6.856;2023-11-22T01:53:32;5.50;99.90
3713;DHT22;1872;51.406;6.856;2023-11-22T01:56:01;5.50;99.90
3713;DHT22;1872;51.406;6.856;2023-11-22T01:58:27;5.50;99.90
3713;DHT22;1872;51.406;6.856;2023-11-22T02:00:53;5.50;99.90
3713;DHT22;1872;51.406;6.856;2023-11-22T02:03:19;5.50;99.90
3713;DHT22;1872;51.406;6.856;2023-11-22T02:05:46;5.50;99.90
3713;DHT22;1872;51.406;6.856;2023-11-22T02:08:12;5.40;99.90
3713;DHT22;1872;51.406;6.856;2023-11-22T02:10:40;5.40;99.90
3713;DHT22;1872;51.406;6.856;2023-11-22T02:13:07;5.40;99.90
3713;DHT22;1872;51.406;6.856;2023-11-22T02:15:36;5.40;99.90
3713;DHT22;1872;51.406;6.856;2023-11-22T02:18:03;5.40;99.90
3713;DHT22;1872;51.406;6.856;2023-11-22T02:20:32;5.40;99.90
3713;DHT22;1872;51.406;6.856;2023-11-22T02:23:04;5.40;99.90
3713;DHT22;1872;51.406;6.856;2023-11-22T02:25:32;5.40;99.90
3713;DHT22;1872;51.406;6.856;2023-11-22T02:27:59;5.40;99.90
3713;DHT22;1872;51.406;6.856;2023-11-22T02:30:25;5.40;99.90
3713;DHT22;1872;51.406;6.856;2023-11-22T02:32:51;5.40;99.90
3713;DHT22;1872;51.406;6.856;2023-11-22T02:35:16;5.40;99.90
3713;DHT22;1872;51.406;6.856;2023-11-22T02:37:43;5.40;99.90
3713;DHT22;1872;51.406;6.856;2023-11-22T02:40:21;5.40;99.90
3713;DHT22;1872;51.406;6.856;2023-11-22T02:42:48;5.40;99.90
3713;DHT22;1872;51.406;6.856;2023-11-22T02:45:16;5.30;99.90
3713;DHT22;1872;51.406;6.856;2023-11-22T02:47:43;5.30;99.90
3713;DHT22;1872;51.406;6.856;2023-11-22T02:50:10;5.30;99.90
3713;DHT22;1872;51.406;6.856;2023-11-22T02:52:37;5.30;99.90
3713;DHT22;1872;51.406;6.856;2023-11-22T02:55:03;5.20;99.90
3713;DHT22;1872;51.406;6.856;2023-11-22T02:57:30;5.20;99.90
3713;DHT22;1872;51.406;6.856;2023-11-22T02:59:57;5.20;99.90
3713;DHT22;1872;51.406;6.856;2023-11-22T03:02:23;5.20;99.90
3713;DHT22;1872;51.406;6.856;2023-11-22T03:04:49;5.20;99.90
3713;DHT22;1872;51.406;6.856;2023-11-22T03:07:15;5.20;99.90
3713;DHT22;1872;51.406;6.856;2023-11-22T03:09:44;5.20;99.90
3713;DHT22;1872;51.406;6.856;2023-11-22T03:12:11;5.20;99.90
3713;DHT22;1872;51.406;6.856;2023-11-22T03:14:38;5.20;99.90
3713;DHT22;1872;51.406;6.856;2023-11-22T03:17:05;5.20;99.90
3713;DHT22;1872;51.406;6.856;2023-11-22T03:19:30;5.10;99.90
3713;DHT22;1872;51.406;6.856;2023-11-22T03:21:56;5.10;99.90
3713;DHT22;1872;51.406;6.856;2023-11-22T03:24:22;5.10;99.90
3713;DHT22;1872;51.406;6.856;2023-11-22T03:26:48;5.10;99.90
3713;DHT22;1872;51.406;6.856;2023-11-22T03:29:17;5.10;99.90
3713;DHT22;1872;51.406;6.856;2023-11-22T03:31:43;5.10;99.90
3713;DHT22;1872;51.406;6.856;2023-11-22T03:34:09;5.10;99.90
3713;DHT22;1872;51.406;6.856;2023-11-22T03:36:35;5.10;99.90
3713;DHT22;1872;51.406;6.856;2023-11-22T03:39:00;5.20;99.90
3713;DHT22;1872;51.406;6.856;2023-11-22T03:41:26;5.20;99.90
3713;DHT22;1872;51.406;6.856;2023-11-22T03:43:52;5.20;99.90
3713;DHT22;1872;51.406;6.856;2023-11-22T03:46:17;5.20;99.90
3713;DHT22;1872;51.406;6.856;2023-11-22T03:48:43;5.20;99.90
3713;DHT22;1872;51.406;6.856;2023-11-22T03:51:08;5.20;99.90
3713;DHT22;1872;51.406;6.856;2023-11-22T03:53:34;5.20;99.90
3713;DHT22;1872;51.406;6.856;2023-11-22T03:56:00;5.10;99.90
3713;DHT22;1872;51.406;6.856;2023-11-22T03:58:25;5.10;99.90
3713;DHT22;1872;51.406;6.856;2023-11-22T04:00:51;5.10;99.90
3713;DHT22;1872;51.406;6.856;2023-11-22T04:03:18;5.10;99.90
3713;DHT22;1872;51.406;6.856;2023-11-22T04:05:44;5.10;99.90
3713;DHT22;1872;51.406;6.856;2023-11-22T04:08:10;5.00;99.90
3713;DHT22;1872;51.406;6.856;2023-11-22T04:10:36;5.00;99.90
3713;DHT22;1872;51.406;6.856;2023-11-22T04:13:02;5.00;99.90
3713;DHT22;1872;51.406;6.856;2023-11-22T04:15:27;5.00;99.90
3713;DHT22;1872;51.406;6.856;2023-11-22T04:17:53;5.00;99.90
3713;DHT22;1872;51.406;6.856;2023-11-22T04:20:21;4.90;99.90
3713;DHT22;1872;51.406;6.856;2023-11-22T04:22:47;4.80;99.90
3713;DHT22;1872;51.406;6.856;2023-11-22T04:25:12;4.80;99.90
3713;DHT22;1872;51.406;6.856;2023-11-22T04:27:41;4.80;99.90
3713;DHT22;1872;51.406;6.856;2023-11-22T04:30:08;4.80;99.90
3713;DHT22;1872;51.406;6.856;2023-11-22T04:32:38;4.80;99.90
3713;DHT22;1872;51.406;6.856;2023-11-22T04:35:05;4.80;99.90
3713;DHT22;1872;51.406;6.856;2023-11-22T04:37:30;4.80;99.90
3713;DHT22;1872;51.406;6.856;2023-11-22T04:39:58;4.80;99.90
3713;DHT22;1872;51.406;6.856;2023-11-22T04:42:24;4.70;99.90
3713;DHT22;1872;51.406;6.856;2023-11-22T04:44:50;4.70;99.90
3713;DHT22;1872;51.406;6.856;2023-11-22T04:47:15;4.70;99.90
3713;DHT22;1872;51.406;6.856;2023-11-22T04:49:43;4.70;99.90
3713;DHT22;1872;51.406;6.856;2023-11-22T04:52:09;4.70;99.90
3713;DHT22;1872;51.406;6.856;2023-11-22T04:54:34;4.70;99.90
3713;DHT22;1872;51.406;6.856;2023-11-22T04:57:00;4.70;99.90
3713;DHT22;1872;51.406;6.856;2023-11-22T04:59:26;4.70;99.90
3713;DHT22;1872;51.406;6.856;2023-11-22T05:01:51;4.70;99.90
3713;DHT22;1872;51.406;6.856;2023-11-22T05:04:17;4.70;99.90
3713;DHT22;1872;51.406;6.856;2023-11-22T05:06:44;4.70;99.90
3713;DHT22;1872;51.406;6.856;2023-11-22T05:09:11;4.60;99.90
3713;DHT22;1872;51.406;6.856;2023-11-22T05:11:39;4.60;99.90
3713;DHT22;1872;51.406;6.856;2023-11-22T05:14:06;4.60;99.90
3713;DHT22;1872;51.406;6.856;2023-11-22T05:16:32;4.60;99.90
3713;DHT22;1872;51.406;6.856;2023-11-22T05:18:59;4.50;99.90
3713;DHT22;1872;51.406;6.856;2023-11-22T05:21:25;4.50;99.90
3713;DHT22;1872;51.406;6.856;2023-11-22T05:23:50;4.50;99.90
3713;DHT22;1872;51.406;6.856;2023-11-22T05:26:17;4.50;99.90
3713;DHT22;1872;51.406;6.856;2023-11-22T05:28:43;4.50;99.90
3713;DHT22;1872;51.406;6.856;2023-11-22T05:31:08;4.50;99.90
3713;DHT22;1872;51.406;6.856;2023-11-22T05:33:34;4.50;99.90
3713;DHT22;1872;51.406;6.856;2023-11-22T05:36:00;4.40;99.90
3713;DHT22;1872;51.406;6.856;2023-11-22T05:38:25;4.40;99.90
3713;DHT22;1872;51.406;6.856;2023-11-22T05:40:52;4.40;99.90
3713;DHT22;1872;51.406;6.856;2023-11-22T05:43:17;4.40;99.90
3713;DHT22;1872;51.406;6.856;2023-11-22T05:45:46;4.40;99.90
3713;DHT22;1872;51.406;6.856;2023-11-22T05:48:15;4.30;99.90
3713;DHT22;1872;51.406;6.856;2023-11-22T05:50:40;4.30;99.90
3713;DHT22;1872;51.406;6.856;2023-11-22T05:53:08;4.30;99.90
3713;DHT22;1872;51.406;6.856;2023-11-22T05:55:36;4.30;99.90
3713;DHT22;1872;51.406;6.856;2023-11-22T05:58:03;4.30;99.90
3713;DHT22;1872;51.406;6.856;2023-11-22T06:00:29;4.20;99.90
3713;DHT22;1872;51.406;6.856;2023-11-22T06:02:54;4.20;99.90
3713;DHT22;1872;51.406;6.856;2023-11-22T06:05:21;4.20;99.90
3713;DHT22;1872;51.406;6.856;2023-11-22T06:07:47;4.20;99.90
3713;DHT22;1872;51.406;6.856;2023-11-22T06:10:13;4.20;99.90
3713;DHT22;1872;51.406;6.856;2023-11-22T06:12:40;4.20;99.90
3713;DHT22;1872;51.406;6.856;2023-11-22T06:15:06;4.10;99.90
3713;DHT22;1872;51.406;6.856;2023-11-22T06:17:32;4.10;99.90
3713;DHT22;1872;51.406;6.856;2023-11-22T06:19:57;4.10;99.90
3713;DHT22;1872;51.406;6.856;2023-11-22T06:22:23;4.10;99.90
3713;DHT22;1872;51.406;6.856;2023-11-22T06:24:48;4.00;99.90
3713;DHT22;1872;51.406;6.856;2023-11-22T06:27:14;4.00;99.90
3713;DHT22;1872;51.406;6.856;2023-11-22T06:29:43;3.90;99.90
3713;DHT22;1872;51.406;6.856;2023-11-22T06:32:12;3.90;99.90
3713;DHT22;1872;51.406;6.856;2023-11-22T06:34:38;3.90;99.90
3713;DHT22;1872;51.406;6.856;2023-11-22T06:37:03;3.90;99.90
3713;DHT22;1872;51.406;6.856;2023-11-22T06:39:29;3.80;99.90
3713;DHT22;1872;51.406;6.856;2023-11-22T06:41:56;3.80;99.90
3713;DHT22;1872;51.406;6.856;2023-11-22T06:44:21;3.80;99.90
3713;DHT22;1872;51.406;6.856;2023-11-22T06:46:48;3.70;99.90
3713;DHT22;1872;51.406;6.856;2023-11-22T06:49:13;3.70;99.90
3713;DHT22;1872;51.406;6.856;2023-11-22T06:51:39;3.70;99.90
3713;DHT22;1872;51.406;6.856;2023-11-22T06:54:05;3.60;99.90
3713;DHT22;1872;51.406;6.856;2023-11-22T06:56:32;3.60;99.90
3713;DHT22;1872;51.406;6.856;2023-11-22T06:58:58;3.60;99.90
3713;DHT22;1872;51.406;6.856;2023-11-22T07:01:24;3.50;99.90
3713;DHT22;1872;51.406;6.856;2023-11-22T07:03:52;3.50;99.90
3713;DHT22;1872;51.406;6.856;2023-11-22T07:06:18;3.50;99.90
3713;DHT22;1872;51.406;6.856;2023-11-22T07:08:44;3.50;99.90
3713;DHT22;1872;51.406;6.856;2023-11-22T07:11:11;3.50;99.90
3713;DHT22;1872;51.406;6.856;2023-11-22T07:13:36;3.50;99.90
3713;DHT22;1872;51.406;6.856;2023-11-22T07:16:04;3.40;99.90
3713;DHT22;1872;51.406;6.856;2023-11-22T07:18:30;3.40;99.90
3713;DHT22;1872;51.406;6.856;2023-11-22T07:20:57;3.40;99.90
3713;DHT22;1872;51.406;6.856;2023-11-22T07:23:26;3.40;99.90
3713;DHT22;1872;51.406;6.856;2023-11-22T07:25:54;3.40;99.90
3713;DHT22;1872;51.406;6.856;2023-11-22T07:28:20;3.40;99.90
3713;DHT22;1872;51.406;6.856;2023-11-22T07:30:46;3.40;99.90
3713;DHT22;1872;51.406;6.856;2023-11-22T07:33:14;3.40;99.90
3713;DHT22;1872;51.406;6.856;2023-11-22T07:35:40;3.40;99.90
3713;DHT22;1872;51.406;6.856;2023-11-22T07:38:07;3.40;99.90
3713;DHT22;1872;51.406;6.856;2023-11-22T07:40:37;3.40;99.90
3713;DHT22;1872;51.406;6.856;2023-11-22T07:43:03;3.50;99.90
3713;DHT22;1872;51.406;6.856;2023-11-22T07:45:31;3.60;99.90
3713;DHT22;1872;51.406;6.856;2023-11-22T07:47:57;3.60;99.90
3713;DHT22;1872;51.406;6.856;2023-11-22T07:50:27;3.70;99.90
3713;DHT22;1872;51.406;6.856;2023-11-22T07:52:52;3.70;99.90
3713;DHT22;1872;51.406;6.856;2023-11-22T07:55:18;3.70;99.90
3713;DHT22;1872;51.406;6.856;2023-11-22T07:57:44;3.80;99.90
3713;DHT22;1872;51.406;6.856;2023-11-22T08:00:11;3.90;99.90
3713;DHT22;1872;51.406;6.856;2023-11-22T08:02:38;3.90;99.90
3713;DHT22;1872;51.406;6.856;2023-11-22T08:05:08;4.00;99.90
3713;DHT22;1872;51.406;6.856;2023-11-22T08:07:37;4.10;99.90
3713;DHT22;1872;51.406;6.856;2023-11-22T08:10:07;4.10;99.90
3713;DHT22;1872;51.406;6.856;2023-11-22T08:12:45;4.10;99.90
3713;DHT22;1872;51.406;6.856;2023-11-22T08:15:11;4.20;99.90
3713;DHT22;1872;51.406;6.856;2023-11-22T08:17:40;4.30;99.90
3713;DHT22;1872;51.406;6.856;2023-11-22T08:20:07;4.30;99.90
3713;DHT22;1872;51.406;6.856;2023-11-22T08:22:38;4.30;99.90
3713;DHT22;1872;51.406;6.856;2023-11-22T08:25:05;4.40;99.90
3713;DHT22;1872;51.406;6.856;2023-11-22T08:27:31;4.40;99.90
3713;DHT22;1872;51.406;6.856;2023-11-22T08:29:57;4.50;99.90
3713;DHT22;1872;51.406;6.856;2023-11-22T08:32:26;4.50;99.90
3713;DHT22;1872;51.406;6.856;2023-11-22T08:34:56;4.50;99.90
3713;DHT22;1872;51.406;6.856;2023-11-22T08:37:22;4.60;99.90
3713;DHT22;1872;51.406;6.856;2023-11-22T08:39:48;4.60;99.90
3713;DHT22;1872;51.406;6.856;2023-11-22T08:42:14;4.60;99.90
3713;DHT22;1872;51.406;6.856;2023-11-22T08:44:40;4.60;99.90
3713;DHT22;1872;51.406;6.856;2023-11-22T08:47:06;4.60;99.90
3713;DHT22;1872;51.406;6.856;2023-11-22T08:49:33;4.60;99.90
3713;DHT22;1872;51.406;6.856;2023-11-22T08:51:58;4.70;99.90
3713;DHT22;1872;51.406;6.856;2023-11-22T08:54:28;4.70;99.90
3713;DHT22;1872;51.406;6.856;2023-11-22T08:56:55;4.60;99.90
3713;DHT22;1872;51.406;6.856;2023-11-22T08:59:25;4.60;99.90
3713;DHT22;1872;51.406;6.856;2023-11-22T09:01:52;4.70;99.90
3713;DHT22;1872;51.406;6.856;2023-11-22T09:04:18;4.70;99.90
3713;DHT22;1872;51.406;6.856;2023-11-22T09:06:45;4.70;99.90
3713;DHT22;1872;51.406;6.856;2023-11-22T09:09:13;4.70;99.90
3713;DHT22;1872;51.406;6.856;2023-11-22T09:11:41;4.70;99.90
3713;DHT22;1872;51.406;6.856;2023-11-22T09:14:07;4.80;99.90
3713;DHT22;1872;51.406;6.856;2023-11-22T09:16:38;4.90;99.90
3713;DHT22;1872;51.406;6.856;2023-11-22T09:19:04;4.90;99.90
3713;DHT22;1872;51.406;6.856;2023-11-22T09:21:32;5.00;99.90
3713;DHT22;1872;51.406;6.856;2023-11-22T09:23:58;5.10;99.90
3713;DHT22;1872;51.406;6.856;2023-11-22T09:26:24;5.10;99.90
3713;DHT22;1872;51.406;6.856;2023-11-22T09:28:53;5.20;99.90
3713;DHT22;1872;51.406;6.856;2023-11-22T09:31:19;5.20;99.90
3713;DHT22;1872;51.406;6.856;2023-11-22T09:33:46;5.30;99.90
3713;DHT22;1872;51.406;6.856;2023-11-22T09:36:15;5.30;99.90
3713;DHT22;1872;51.406;6.856;2023-11-22T09:38:40;5.40;99.90
3713;DHT22;1872;51.406;6.856;2023-11-22T09:41:07;5.40;99.90
3713;DHT22;1872;51.406;6.856;2023-11-22T09:43:34;5.40;99.90
3713;DHT22;1872;51.406;6.856;2023-11-22T09:45:59;5.50;99.90
3713;DHT22;1872;51.406;6.856;2023-11-22T09:48:26;5.50;99.90
3713;DHT22;1872;51.406;6.856;2023-11-22T09:51:09;5.60;99.90
3713;DHT22;1872;51.406;6.856;2023-11-22T09:56:09;5.70;99.90
3713;DHT22;1872;51.406;6.856;2023-11-22T09:58:40;5.70;99.90
3713;DHT22;1872;51.406;6.856;2023-11-22T10:01:11;5.80;99.90
3713;DHT22;1872;51.406;6.856;2023-11-22T10:03:39;5.80;99.90
3713;DHT22;1872;51.406;6.856;2023-11-22T10:06:05;5.90;99.90
3713;DHT22;1872;51.406;6.856;2023-11-22T10:08:33;6.00;99.90
3713;DHT22;1872;51.406;6.856;2023-11-22T10:11:01;6.00;99.90
3713;DHT22;1872;51.406;6.856;2023-11-22T10:13:27;6.00;99.90
3713;DHT22;1872;51.406;6.856;2023-11-22T10:15:55;6.10;99.90
3713;DHT22;1872;51.406;6.856;2023-11-22T10:18:21;6.10;99.90
3713;DHT22;1872;51.406;6.856;2023-11-22T10:20:48;6.10;99.90
3713;DHT22;1872;51.406;6.856;2023-11-22T10:23:18;6.10;99.90
3713;DHT22;1872;51.406;6.856;2023-11-22T10:25:50;6.20;99.90
3713;DHT22;1872;51.406;6.856;2023-11-22T10:28:20;6.20;99.90
3713;DHT22;1872;51.406;6.856;2023-11-22T10:30:47;6.30;99.90
3713;DHT22;1872;51.406;6.856;2023-11-22T10:33:14;6.30;99.90
3713;DHT22;1872;51.406;6.856;2023-11-22T10:35:45;6.30;99.90
3713;DHT22;1872;51.406;6.856;2023-11-22T10:38:16;6.30;99.90
3713;DHT22;1872;51.406;6.856;2023-11-22T10:40:42;6.30;99.90
3713;DHT22;1872;51.406;6.856;2023-11-22T10:43:11;6.30;99.90
3713;DHT22;1872;51.406;6.856;2023-11-22T10:45:38;6.30;99.90
3713;DHT22;1872;51.406;6.856;2023-11-22T10:48:05;6.30;99.90
3713;DHT22;1872;51.406;6.856;2023-11-22T10:50:34;6.30;99.90
3713;DHT22;1872;51.406;6.856;2023-11-22T10:53:01;6.30;99.90
3713;DHT22;1872;51.406;6.856;2023-11-22T10:55:31;6.30;99.90
3713;DHT22;1872;51.406;6.856;2023-11-22T10:58:01;6.40;99.90
3713;DHT22;1872;51.406;6.856;2023-11-22T11:00:29;6.40;99.90
3713;DHT22;1872;51.406;6.856;2023-11-22T11:03:06;6.40;99.90
3713;DHT22;1872;51.406;6.856;2023-11-22T11:05:33;6.50;99.90
3713;DHT22;1872;51.406;6.856;2023-11-22T11:08:11;6.50;99.90
3713;DHT22;1872;51.406;6.856;2023-11-22T11:10:43;6.50;99.90
3713;DHT22;1872;51.406;6.856;2023-11-22T11:13:09;6.60;99.90
3713;DHT22;1872;51.406;6.856;2023-11-22T11:15:39;6.60;99.90
3713;DHT22;1872;51.406;6.856;2023-11-22T11:18:10;6.60;99.90
3713;DHT22;1872;51.406;6.856;2023-11-22T11:20:49;6.60;99.90
3713;DHT22;1872;51.406;6.856;2023-11-22T11:23:22;6.60;99.90
3713;DHT22;1872;51.406;6.856;2023-11-22T11:25:56;6.60;99.90
3713;DHT22;1872;51.406;6.856;2023-11-22T11:28:26;6.70;99.90
3713;DHT22;1872;51.406;6.856;2023-11-22T11:30:53;6.70;99.90
3713;DHT22;1872;51.406;6.856;2023-11-22T11:33:34;6.70;99.90
3713;DHT22;1872;51.406;6.856;2023-11-22T11:36:02;6.70;99.90
3713;DHT22;1872;51.406;6.856;2023-11-22T11:38:34;6.80;99.90
3713;DHT22;1872;51.406;6.856;2023-11-22T11:41:12;6.80;99.90
3713;DHT22;1872;51.406;6.856;2023-11-22T11:43:46;6.70;99.90
3713;DHT22;1872;51.406;6.856;2023-11-22T11:46:13;6.70;99.90
3713;DHT22;1872;51.406;6.856;2023-11-22T11:48:49;6.80;99.90
3713;DHT22;1872;51.406;6.856;2023-11-22T11:54:47;6.90;99.90
3713;DHT22;1872;51.406;6.856;2023-11-22T11:57:13;6.90;99.90
3713;DHT22;1872;51.406;6.856;2023-11-22T11:59:38;7.00;99.90
3713;DHT22;1872;51.406;6.856;2023-11-22T12:02:04;7.00;99.90
3713;DHT22;1872;51.406;6.856;2023-11-22T12:04:31;7.00;99.90
3713;DHT22;1872;51.406;6.856;2023-11-22T12:06:59;7.00;99.90
3713;DHT22;1872;51.406;6.856;2023-11-22T12:09:25;7.00;99.90
3713;DHT22;1872;51.406;6.856;2023-11-22T12:11:52;7.00;99.90
3713;DHT22;1872;51.406;6.856;2023-11-22T12:14:21;7.00;99.90
3713;DHT22;1872;51.406;6.856;2023-11-22T12:16:47;6.90;99.90
3713;DHT22;1872;51.406;6.856;2023-11-22T12:19:27;6.90;99.90
3713;DHT22;1872;51.406;6.856;2023-11-22T12:21:53;6.80;99.90
3713;DHT22;1872;51.406;6.856;2023-11-22T12:24:19;6.70;99.90
3713;DHT22;1872;51.406;6.856;2023-11-22T12:26:46;6.70;99.90
3713;DHT22;1872;51.406;6.856;2023-11-22T12:29:19;6.70;99.90
3713;DHT22;1872;51.406;6.856;2023-11-22T12:31:50;6.70;99.90
3713;DHT22;1872;51.406;6.856;2023-11-22T12:34:18;6.60;99.90
3713;DHT22;1872;51.406;6.856;2023-11-22T12:36:47;6.60;99.90
3713;DHT22;1872;51.406;6.856;2023-11-22T12:39:20;6.60;99.90
3713;DHT22;1872;51.406;6.856;2023-11-22T12:41:50;6.60;99.90
3713;DHT22;1872;51.406;6.856;2023-11-22T12:44:17;6.60;99.90
3713;DHT22;1872;51.406;6.856;2023-11-22T12:46:50;6.60;99.90
3713;DHT22;1872;51.406;6.856;2023-11-22T12:49:25;6.60;99.90
3713;DHT22;1872;51.406;6.856;2023-11-22T12:51:54;6.50;99.90
3713;DHT22;1872;51.406;6.856;2023-11-22T12:54:20;6.50;99.90
3713;DHT22;1872;51.406;6.856;2023-11-22T12:56:49;6.50;99.90
3713;DHT22;1872;51.406;6.856;2023-11-22T12:59:17;6.50;99.90
3713;DHT22;1872;51.406;6.856;2023-11-22T13:01:44;6.60;99.90
3713;DHT22;1872;51.406;6.856;2023-11-22T13:04:10;6.60;99.90
3713;DHT22;1872;51.406;6.856;2023-11-22T13:06:35;6.50;99.90
3713;DHT22;1872;51.406;6.856;2023-11-22T13:09:02;6.60;99.90
3713;DHT22;1872;51.406;6.856;2023-11-22T13:11:28;6.60;99.90
3713;DHT22;1872;51.406;6.856;2023-11-22T13:13:54;6.60;99.90
3713;DHT22;1872;51.406;6.856;2023-11-22T13:16:19;6.60;99.90
3713;DHT22;1872;51.406;6.856;2023-11-22T13:18:46;6.60;99.90
3713;DHT22;1872;51.406;6.856;2023-11-22T13:21:13;6.60;99.90
3713;DHT22;1872;51.406;6.856;2023-11-22T13:23:39;6.70;99.90
3713;DHT22;1872;51.406;6.856;2023-11-22T13:26:10;6.70;99.90
3713;DHT22;1872;51.406;6.856;2023-11-22T13:28:39;6.70;99.90
3713;DHT22;1872;51.406;6.856;2023-11-22T13:31:06;6.80;99.90
3713;DHT22;1872;51.406;6.856;2023-11-22T13:33:32;6.80;99.90
3713;DHT22;1872;51.406;6.856;2023-11-22T13:35:57;6.80;99.90
3713;DHT22;1872;51.406;6.856;2023-11-22T13:38:23;6.90;99.90
3713;DHT22;1872;51.406;6.856;2023-11-22T13:40:52;6.90;99.90
3713;DHT22;1872;51.406;6.856;2023-11-22T13:43:25;7.00;99.90
3713;DHT22;1872;51.406;6.856;2023-11-22T13:45:51;7.00;99.90
3713;DHT22;1872;51.406;6.856;2023-11-22T13:48:16;7.00;99.90
3713;DHT22;1872;51.406;6.856;2023-11-22T13:50:44;7.00;99.90
3713;DHT22;1872;51.406;6.856;2023-11-22T13:53:10;7.00;99.90
3713;DHT22;1872;51.406;6.856;2023-11-22T13:55:38;7.00;99.90
3713;DHT22;1872;51.406;6.856;2023-11-22T13:58:04;7.10;99.90
3713;DHT22;1872;51.406;6.856;2023-11-22T14:00:30;7.00;99.90
3713;DHT22;1872;51.406;6.856;2023-11-22T14:03:01;7.10;99.90
3713;DHT22;1872;51.406;6.856;2023-11-22T14:05:37;7.00;99.90
3713;DHT22;1872;51.406;6.856;2023-11-22T14:08:07;7.00;99.90
3713;DHT22;1872;51.406;6.856;2023-11-22T14:10:35;7.00;99.90
3713;DHT22;1872;51.406;6.856;2023-11-22T14:13:01;7.00;99.90
3713;DHT22;1872;51.406;6.856;2023-11-22T14:15:29;7.00;99.90
3713;DHT22;1872;51.406;6.856;2023-11-22T14:17:55;7.00;99.90
3713;DHT22;1872;51.406;6.856;2023-11-22T14:20:21;7.00;99.90
3713;DHT22;1872;51.406;6.856;2023-11-22T14:22:47;7.00;99.90
3713;DHT22;1872;51.406;6.856;2023-11-22T14:25:13;7.00;99.90
3713;DHT22;1872;51.406;6.856;2023-11-22T14:27:42;7.00;99.90
3713;DHT22;1872;51.406;6.856;2023-11-22T14:30:08;6.90;99.90
3713;DHT22;1872;51.406;6.856;2023-11-22T14:32:37;7.00;99.90
3713;DHT22;1872;51.406;6.856;2023-11-22T14:35:06;6.90;99.90
3713;DHT22;1872;51.406;6.856;2023-11-22T14:37:36;6.90;99.90
3713;DHT22;1872;51.406;6.856;2023-11-22T14:40:05;6.90;99.90
3713;DHT22;1872;51.406;6.856;2023-11-22T14:42:38;6.90;99.90
3713;DHT22;1872;51.406;6.856;2023-11-22T14:45:05;6.80;99.90
3713;DHT22;1872;51.406;6.856;2023-11-22T14:47:31;6.80;99.90
3713;DHT22;1872;51.406;6.856;2023-11-22T14:50:02;6.80;99.90
3713;DHT22;1872;51.406;6.856;2023-11-22T14:52:30;6.90;99.90
3713;DHT22;1872;51.406;6.856;2023-11-22T14:54:55;6.80;99.90
3713;DHT22;1872;51.406;6.856;2023-11-22T14:57:24;6.80;99.90
3713;DHT22;1872;51.406;6.856;2023-11-22T14:59:52;6.90;99.90
3713;DHT22;1872;51.406;6.856;2023-11-22T15:02:18;6.90;99.90
3713;DHT22;1872;51.406;6.856;2023-11-22T15:04:44;6.90;99.90
3713;DHT22;1872;51.406;6.856;2023-11-22T15:07:10;6.90;99.90
3713;DHT22;1872;51.406;6.856;2023-11-22T15:09:44;6.90;99.90
3713;DHT22;1872;51.406;6.856;2023-11-22T15:12:13;6.80;99.90
3713;DHT22;1872;51.406;6.856;2023-11-22T15:14:39;6.80;99.90
3713;DHT22;1872;51.406;6.856;2023-11-22T15:17:05;6.80;99.90
3713;DHT22;1872;51.406;6.856;2023-11-22T15:19:31;6.80;99.90
3713;DHT22;1872;51.406;6.856;2023-11-22T15:21:57;6.70;99.90
3713;DHT22;1872;51.406;6.856;2023-11-22T15:24:23;6.70;99.90
3713;DHT22;1872;51.406;6.856;2023-11-22T15:26:49;6.70;99.90
3713;DHT22;1872;51.406;6.856;2023-11-22T15:29:17;6.70;99.90
3713;DHT22;1872;51.406;6.856;2023-11-22T15:31:44;6.70;99.90
3713;DHT22;1872;51.406;6.856;2023-11-22T15:34:10;6.70;99.90
3713;DHT22;1872;51.406;6.856;2023-11-22T15:36:36;6.70;99.90
3713;DHT22;1872;51.406;6.856;2023-11-22T15:39:02;6.70;99.90
3713;DHT22;1872;51.406;6.856;2023-11-22T15:41:28;6.70;99.90
3713;DHT22;1872;51.406;6.856;2023-11-22T15:43:54;6.70;99.90
3713;DHT22;1872;51.406;6.856;2023-11-22T15:46:20;6.60;99.90
3713;DHT22;1872;51.406;6.856;2023-11-22T15:48:52;6.70;99.90
3713;DHT22;1872;51.406;6.856;2023-11-22T15:51:18;6.60;99.90
3713;DHT22;1872;51.406;6.856;2023-11-22T15:53:44;6.60;99.90
3713;DHT22;1872;51.406;6.856;2023-11-22T15:56:10;6.60;99.90
3713;DHT22;1872;51.406;6.856;2023-11-22T15:58:41;6.60;99.90
3713;DHT22;1872;51.406;6.856;2023-11-22T16:01:07;6.60;99.90
3713;DHT22;1872;51.406;6.856;2023-11-22T16:03:33;6.60;99.90
3713;DHT22;1872;51.406;6.856;2023-11-22T16:06:00;6.60;99.90
3713;DHT22;1872;51.406;6.856;2023-11-22T16:08:29;6.60;99.90
3713;DHT22;1872;51.406;6.856;2023-11-22T16:10:56;6.60;99.90
3713;DHT22;1872;51.406;6.856;2023-11-22T16:13:21;6.60;99.90
3713;DHT22;1872;51.406;6.856;2023-11-22T16:15:47;6.50;99.90
3713;DHT22;1872;51.406;6.856;2023-11-22T16:18:13;6.60;99.90
3713;DHT22;1872;51.406;6.856;2023-11-22T16:20:39;6.50;99.90
3713;DHT22;1872;51.406;6.856;2023-11-22T16:23:04;6.50;99.90